Anvik Airport Anvik US
ICAO: PANV
IATA:
Category: Medium
Scheduled Services:

Elevation: 291 ft
TransAlt. 18000 ft.

Airport Communications:
AWOS 3:133.55
ANCHORAGE CNTR:135.7
KENAI RDO:122.4
CTAF/UNICOM:122.7

PANV Zoom In..

If you have problems with the map follow the link
https://www.worldairports.se/pages/airport.php?
ICAO=PANV

Runways:

(A) RW 17 length 4000 ft width 75 ft
---- / hdg 172

(B) RW 35 length 4000 ft width 75 ft
---- / hdg 352

Location; PANV
Day. 26 / Time. 00.56 Zulu
* Altimeter: 30.08
* Temperature: -19° c. 2.2°f.
* Wind from: 030° Speed 04 kn.
Dewpoint: -26° c.
Visibility: 10 Statute Miles.
Clouds: Clear (automated report).

PANV 260056Z AUTO 03004KT 10SM CLR M19/M26 A3008 RMK AO2 SLP361 T11941256 FZRANO TSNO


Wind From 030°
Speed 04 kn.

 
 
jpsmedia worldairports.se 2020   terms of use